sensor_id;sensor_type;location;lat;lon;timestamp;temperature;humidity
10042;DHT22;5061;49.068;12.058;2022-07-29T00:00:29;21.40;58.50
10042;DHT22;5061;49.068;12.058;2022-07-29T00:03:50;21.40;58.60
10042;DHT22;5061;49.068;12.058;2022-07-29T00:07:11;21.40;58.60
10042;DHT22;5061;49.068;12.058;2022-07-29T00:10:31;21.30;58.50
10042;DHT22;5061;49.068;12.058;2022-07-29T00:13:52;21.30;58.60
10042;DHT22;5061;49.068;12.058;2022-07-29T00:17:12;21.30;58.70
10042;DHT22;5061;49.068;12.058;2022-07-29T00:20:33;21.30;58.70
10042;DHT22;5061;49.068;12.058;2022-07-29T00:23:53;21.30;58.80
10042;DHT22;5061;49.068;12.058;2022-07-29T00:27:14;21.20;58.80
10042;DHT22;5061;49.068;12.058;2022-07-29T00:30:34;21.20;58.90
10042;DHT22;5061;49.068;12.058;2022-07-29T00:33:56;21.20;59.00
10042;DHT22;5061;49.068;12.058;2022-07-29T00:37:16;21.10;58.90
10042;DHT22;5061;49.068;12.058;2022-07-29T00:40:37;21.10;59.00
10042;DHT22;5061;49.068;12.058;2022-07-29T00:43:58;21.10;59.10
10042;DHT22;5061;49.068;12.058;2022-07-29T00:47:19;21.00;59.20
10042;DHT22;5061;49.068;12.058;2022-07-29T00:50:39;21.00;59.20
10042;DHT22;5061;49.068;12.058;2022-07-29T00:54:00;21.00;59.20
10042;DHT22;5061;49.068;12.058;2022-07-29T00:57:20;20.90;59.40
10042;DHT22;5061;49.068;12.058;2022-07-29T01:00:41;20.80;59.40
10042;DHT22;5061;49.068;12.058;2022-07-29T01:04:02;20.80;59.50
10042;DHT22;5061;49.068;12.058;2022-07-29T01:07:25;20.80;59.60
10042;DHT22;5061;49.068;12.058;2022-07-29T01:10:46;20.80;59.60
10042;DHT22;5061;49.068;12.058;2022-07-29T01:14:08;20.80;59.60
10042;DHT22;5061;49.068;12.058;2022-07-29T01:24:57;20.70;59.80
10042;DHT22;5061;49.068;12.058;2022-07-29T01:32:12;20.60;59.90
10042;DHT22;5061;49.068;12.058;2022-07-29T01:35:39;20.60;60.10
10042;DHT22;5061;49.068;12.058;2022-07-29T01:39:10;20.60;60.10
10042;DHT22;5061;49.068;12.058;2022-07-29T01:42:39;20.60;60.00
10042;DHT22;5061;49.068;12.058;2022-07-29T01:46:05;20.50;59.90
10042;DHT22;5061;49.068;12.058;2022-07-29T01:49:33;20.50;60.00
10042;DHT22;5061;49.068;12.058;2022-07-29T01:53:01;20.50;60.00
10042;DHT22;5061;49.068;12.058;2022-07-29T01:56:23;20.50;60.20
10042;DHT22;5061;49.068;12.058;2022-07-29T01:59:45;20.50;60.20
10042;DHT22;5061;49.068;12.058;2022-07-29T02:03:09;20.50;60.30
10042;DHT22;5061;49.068;12.058;2022-07-29T02:06:32;20.40;60.30
10042;DHT22;5061;49.068;12.058;2022-07-29T02:09:54;20.50;60.40
10042;DHT22;5061;49.068;12.058;2022-07-29T02:13:16;20.40;60.30
10042;DHT22;5061;49.068;12.058;2022-07-29T02:16:38;20.40;60.40
10042;DHT22;5061;49.068;12.058;2022-07-29T02:20:02;20.30;60.40
10042;DHT22;5061;49.068;12.058;2022-07-29T02:23:24;20.30;60.40
10042;DHT22;5061;49.068;12.058;2022-07-29T02:26:45;20.30;60.60
10042;DHT22;5061;49.068;12.058;2022-07-29T02:30:08;20.30;60.60
10042;DHT22;5061;49.068;12.058;2022-07-29T02:33:31;20.30;60.70
10042;DHT22;5061;49.068;12.058;2022-07-29T02:36:54;20.30;60.80
10042;DHT22;5061;49.068;12.058;2022-07-29T02:40:15;20.30;60.80
10042;DHT22;5061;49.068;12.058;2022-07-29T02:43:37;20.20;60.80
10042;DHT22;5061;49.068;12.058;2022-07-29T02:50:51;20.20;60.90
10042;DHT22;5061;49.068;12.058;2022-07-29T02:54:31;20.20;60.90
10042;DHT22;5061;49.068;12.058;2022-07-29T03:01:30;20.10;61.10
10042;DHT22;5061;49.068;12.058;2022-07-29T03:04:51;20.10;61.20
10042;DHT22;5061;49.068;12.058;2022-07-29T03:08:15;20.10;61.30
10042;DHT22;5061;49.068;12.058;2022-07-29T03:11:36;20.10;61.40
10042;DHT22;5061;49.068;12.058;2022-07-29T03:14:57;20.10;61.40
10042;DHT22;5061;49.068;12.058;2022-07-29T03:18:19;20.00;61.40
10042;DHT22;5061;49.068;12.058;2022-07-29T03:21:40;20.00;61.60
10042;DHT22;5061;49.068;12.058;2022-07-29T03:25:08;20.00;61.70
10042;DHT22;5061;49.068;12.058;2022-07-29T03:28:29;20.00;61.70
10042;DHT22;5061;49.068;12.058;2022-07-29T03:31:50;20.00;61.90
10042;DHT22;5061;49.068;12.058;2022-07-29T03:35:10;19.90;61.90
10042;DHT22;5061;49.068;12.058;2022-07-29T03:38:34;20.00;62.00
10042;DHT22;5061;49.068;12.058;2022-07-29T03:41:58;20.00;62.10
10042;DHT22;5061;49.068;12.058;2022-07-29T03:45:20;19.90;62.10
10042;DHT22;5061;49.068;12.058;2022-07-29T03:48:46;19.90;62.30
10042;DHT22;5061;49.068;12.058;2022-07-29T03:52:07;19.90;62.30
10042;DHT22;5061;49.068;12.058;2022-07-29T03:55:33;19.90;62.30
10042;DHT22;5061;49.068;12.058;2022-07-29T03:58:56;19.90;62.40
10042;DHT22;5061;49.068;12.058;2022-07-29T04:02:17;19.90;62.50
10042;DHT22;5061;49.068;12.058;2022-07-29T04:05:39;19.80;62.60
10042;DHT22;5061;49.068;12.058;2022-07-29T04:08:59;19.80;62.70
10042;DHT22;5061;49.068;12.058;2022-07-29T04:12:20;19.80;62.80
10042;DHT22;5061;49.068;12.058;2022-07-29T04:15:41;19.70;62.80
10042;DHT22;5061;49.068;12.058;2022-07-29T04:19:01;19.70;62.90
10042;DHT22;5061;49.068;12.058;2022-07-29T04:22:22;19.70;63.00
10042;DHT22;5061;49.068;12.058;2022-07-29T04:25:43;19.70;63.20
10042;DHT22;5061;49.068;12.058;2022-07-29T04:29:04;19.60;63.30
10042;DHT22;5061;49.068;12.058;2022-07-29T04:32:25;19.50;63.30
10042;DHT22;5061;49.068;12.058;2022-07-29T04:35:45;19.50;63.50
10042;DHT22;5061;49.068;12.058;2022-07-29T04:39:06;19.40;63.50
10042;DHT22;5061;49.068;12.058;2022-07-29T04:42:26;19.40;63.90
10042;DHT22;5061;49.068;12.058;2022-07-29T04:45:47;19.40;63.90
10042;DHT22;5061;49.068;12.058;2022-07-29T04:49:08;19.40;64.80
10042;DHT22;5061;49.068;12.058;2022-07-29T04:52:28;19.40;64.30
10042;DHT22;5061;49.068;12.058;2022-07-29T04:55:49;19.30;64.20
10042;DHT22;5061;49.068;12.058;2022-07-29T04:59:09;19.30;64.20
10042;DHT22;5061;49.068;12.058;2022-07-29T05:02:30;19.30;64.20
10042;DHT22;5061;49.068;12.058;2022-07-29T05:05:51;19.30;64.20
10042;DHT22;5061;49.068;12.058;2022-07-29T05:09:11;19.40;64.30
10042;DHT22;5061;49.068;12.058;2022-07-29T05:12:32;19.40;64.30
10042;DHT22;5061;49.068;12.058;2022-07-29T05:15:52;19.40;64.30
10042;DHT22;5061;49.068;12.058;2022-07-29T05:19:13;19.40;64.30
10042;DHT22;5061;49.068;12.058;2022-07-29T05:22:34;19.40;64.30
10042;DHT22;5061;49.068;12.058;2022-07-29T05:25:54;19.40;64.30
10042;DHT22;5061;49.068;12.058;2022-07-29T05:29:15;19.40;64.30
10042;DHT22;5061;49.068;12.058;2022-07-29T05:32:36;19.40;64.40
10042;DHT22;5061;49.068;12.058;2022-07-29T05:35:56;19.40;64.60
10042;DHT22;5061;49.068;12.058;2022-07-29T05:39:17;19.40;64.70
10042;DHT22;5061;49.068;12.058;2022-07-29T05:42:38;19.40;64.80
10042;DHT22;5061;49.068;12.058;2022-07-29T05:45:59;19.40;64.80
10042;DHT22;5061;49.068;12.058;2022-07-29T05:49:20;19.30;64.90
10042;DHT22;5061;49.068;12.058;2022-07-29T05:52:40;19.30;64.90
10042;DHT22;5061;49.068;12.058;2022-07-29T05:56:03;19.30;65.10
10042;DHT22;5061;49.068;12.058;2022-07-29T05:59:25;19.30;65.10
10042;DHT22;5061;49.068;12.058;2022-07-29T06:02:45;19.20;65.20
10042;DHT22;5061;49.068;12.058;2022-07-29T06:06:07;19.30;65.60
10042;DHT22;5061;49.068;12.058;2022-07-29T06:09:27;19.30;65.50
10042;DHT22;5061;49.068;12.058;2022-07-29T06:12:48;19.40;65.60
10042;DHT22;5061;49.068;12.058;2022-07-29T06:16:08;19.40;65.70
10042;DHT22;5061;49.068;12.058;2022-07-29T06:19:29;19.50;65.80
10042;DHT22;5061;49.068;12.058;2022-07-29T06:22:50;19.50;65.60
10042;DHT22;5061;49.068;12.058;2022-07-29T06:26:11;19.60;65.70
10042;DHT22;5061;49.068;12.058;2022-07-29T06:29:31;19.60;65.60
10042;DHT22;5061;49.068;12.058;2022-07-29T06:32:52;19.60;65.80
10042;DHT22;5061;49.068;12.058;2022-07-29T06:36:13;19.70;65.90
10042;DHT22;5061;49.068;12.058;2022-07-29T06:39:35;19.70;65.80
10042;DHT22;5061;49.068;12.058;2022-07-29T06:42:56;19.80;66.00
10042;DHT22;5061;49.068;12.058;2022-07-29T06:46:18;19.90;66.20
10042;DHT22;5061;49.068;12.058;2022-07-29T06:49:39;20.00;66.20
10042;DHT22;5061;49.068;12.058;2022-07-29T06:52:59;20.10;66.40
10042;DHT22;5061;49.068;12.058;2022-07-29T06:56:20;20.10;66.40
10042;DHT22;5061;49.068;12.058;2022-07-29T06:59:40;20.20;66.30
10042;DHT22;5061;49.068;12.058;2022-07-29T07:03:01;20.20;66.30
10042;DHT22;5061;49.068;12.058;2022-07-29T07:06:22;20.30;66.40
10042;DHT22;5061;49.068;12.058;2022-07-29T07:09:42;20.30;66.40
10042;DHT22;5061;49.068;12.058;2022-07-29T07:13:04;20.30;66.30
10042;DHT22;5061;49.068;12.058;2022-07-29T07:16:24;20.40;66.40
10042;DHT22;5061;49.068;12.058;2022-07-29T07:19:45;20.50;66.40
10042;DHT22;5061;49.068;12.058;2022-07-29T07:23:06;20.70;66.40
10042;DHT22;5061;49.068;12.058;2022-07-29T07:26:27;20.80;67.00
10042;DHT22;5061;49.068;12.058;2022-07-29T07:29:47;20.90;66.30
10042;DHT22;5061;49.068;12.058;2022-07-29T07:33:08;21.00;66.20
10042;DHT22;5061;49.068;12.058;2022-07-29T07:36:29;21.10;66.20
10042;DHT22;5061;49.068;12.058;2022-07-29T07:39:50;21.20;66.10
10042;DHT22;5061;49.068;12.058;2022-07-29T07:43:10;21.20;66.20
10042;DHT22;5061;49.068;12.058;2022-07-29T07:46:31;21.20;66.20
10042;DHT22;5061;49.068;12.058;2022-07-29T07:49:52;21.20;66.30
10042;DHT22;5061;49.068;12.058;2022-07-29T07:53:13;21.20;66.50
10042;DHT22;5061;49.068;12.058;2022-07-29T07:56:34;21.30;66.60
10042;DHT22;5061;49.068;12.058;2022-07-29T07:59:54;21.40;66.80
10042;DHT22;5061;49.068;12.058;2022-07-29T08:03:15;21.50;67.00
10042;DHT22;5061;49.068;12.058;2022-07-29T08:06:35;21.50;67.60
10042;DHT22;5061;49.068;12.058;2022-07-29T08:09:57;21.60;67.10
10042;DHT22;5061;49.068;12.058;2022-07-29T08:13:19;21.70;67.30
10042;DHT22;5061;49.068;12.058;2022-07-29T08:16:40;21.80;67.20
10042;DHT22;5061;49.068;12.058;2022-07-29T08:20:02;21.90;67.30
10042;DHT22;5061;49.068;12.058;2022-07-29T08:23:23;22.00;67.40
10042;DHT22;5061;49.068;12.058;2022-07-29T08:26:44;22.20;67.50
10042;DHT22;5061;49.068;12.058;2022-07-29T08:30:05;22.30;67.60
10042;DHT22;5061;49.068;12.058;2022-07-29T08:33:26;22.40;67.60
10042;DHT22;5061;49.068;12.058;2022-07-29T08:36:47;22.40;67.60
10042;DHT22;5061;49.068;12.058;2022-07-29T08:40:08;22.50;67.80
10042;DHT22;5061;49.068;12.058;2022-07-29T08:43:29;22.60;67.90
10042;DHT22;5061;49.068;12.058;2022-07-29T08:46:49;22.70;67.90
10042;DHT22;5061;49.068;12.058;2022-07-29T08:50:11;22.70;68.00
10042;DHT22;5061;49.068;12.058;2022-07-29T08:53:32;22.80;68.10
10042;DHT22;5061;49.068;12.058;2022-07-29T08:56:53;22.90;68.20
10042;DHT22;5061;49.068;12.058;2022-07-29T09:00:15;22.90;68.10
10042;DHT22;5061;49.068;12.058;2022-07-29T09:03:38;23.00;68.20
10042;DHT22;5061;49.068;12.058;2022-07-29T09:07:01;23.20;68.30
10042;DHT22;5061;49.068;12.058;2022-07-29T09:10:24;23.40;68.50
10042;DHT22;5061;49.068;12.058;2022-07-29T09:13:44;23.70;68.50
10042;DHT22;5061;49.068;12.058;2022-07-29T09:17:06;23.90;68.60
10042;DHT22;5061;49.068;12.058;2022-07-29T09:20:28;24.10;68.70
10042;DHT22;5061;49.068;12.058;2022-07-29T09:24:12;24.30;68.70
10042;DHT22;5061;49.068;12.058;2022-07-29T09:27:34;24.50;68.90
10042;DHT22;5061;49.068;12.058;2022-07-29T09:30:56;24.70;68.80
10042;DHT22;5061;49.068;12.058;2022-07-29T09:34:26;24.90;68.70
10042;DHT22;5061;49.068;12.058;2022-07-29T09:37:48;25.10;68.60
10042;DHT22;5061;49.068;12.058;2022-07-29T09:41:09;25.20;68.40
10042;DHT22;5061;49.068;12.058;2022-07-29T09:44:46;25.40;68.20
10042;DHT22;5061;49.068;12.058;2022-07-29T09:48:22;25.60;67.80
10042;DHT22;5061;49.068;12.058;2022-07-29T09:51:43;25.80;67.40
10042;DHT22;5061;49.068;12.058;2022-07-29T09:55:08;25.90;67.00
10042;DHT22;5061;49.068;12.058;2022-07-29T09:58:30;26.00;66.90
10042;DHT22;5061;49.068;12.058;2022-07-29T10:01:53;26.20;66.70
10042;DHT22;5061;49.068;12.058;2022-07-29T10:05:23;26.30;66.10
10042;DHT22;5061;49.068;12.058;2022-07-29T10:08:43;26.40;65.60
10042;DHT22;5061;49.068;12.058;2022-07-29T10:15:31;26.60;64.80
10042;DHT22;5061;49.068;12.058;2022-07-29T10:18:52;26.70;64.70
10042;DHT22;5061;49.068;12.058;2022-07-29T10:22:13;26.90;65.00
10042;DHT22;5061;49.068;12.058;2022-07-29T10:25:33;27.00;64.00
10042;DHT22;5061;49.068;12.058;2022-07-29T10:28:55;27.10;63.80
10042;DHT22;5061;49.068;12.058;2022-07-29T10:35:59;27.20;63.10
10042;DHT22;5061;49.068;12.058;2022-07-29T10:43:13;27.30;63.00
10042;DHT22;5061;49.068;12.058;2022-07-29T10:46:36;27.40;62.70
10042;DHT22;5061;49.068;12.058;2022-07-29T10:50:05;27.50;62.40
10042;DHT22;5061;49.068;12.058;2022-07-29T10:53:49;27.60;62.00
10042;DHT22;5061;49.068;12.058;2022-07-29T11:00:48;27.90;61.80
10042;DHT22;5061;49.068;12.058;2022-07-29T11:04:09;27.90;61.30
10042;DHT22;5061;49.068;12.058;2022-07-29T11:07:30;28.00;61.40
10042;DHT22;5061;49.068;12.058;2022-07-29T11:11:30;28.10;61.30
10042;DHT22;5061;49.068;12.058;2022-07-29T11:18:15;28.30;61.10
10042;DHT22;5061;49.068;12.058;2022-07-29T11:21:36;28.40;60.80
10042;DHT22;5061;49.068;12.058;2022-07-29T11:25:17;28.40;60.90
10042;DHT22;5061;49.068;12.058;2022-07-29T11:32:16;28.40;60.30
10042;DHT22;5061;49.068;12.058;2022-07-29T11:35:39;28.40;60.00
10042;DHT22;5061;49.068;12.058;2022-07-29T11:39:25;28.40;59.80
10042;DHT22;5061;49.068;12.058;2022-07-29T11:42:46;28.40;59.80
10042;DHT22;5061;49.068;12.058;2022-07-29T11:46:07;28.40;59.70
10042;DHT22;5061;49.068;12.058;2022-07-29T11:49:28;28.40;59.60
10042;DHT22;5061;49.068;12.058;2022-07-29T11:52:49;28.50;59.60
10042;DHT22;5061;49.068;12.058;2022-07-29T11:56:13;28.50;59.50
10042;DHT22;5061;49.068;12.058;2022-07-29T11:59:42;28.50;59.60
10042;DHT22;5061;49.068;12.058;2022-07-29T12:03:06;28.50;59.40
10042;DHT22;5061;49.068;12.058;2022-07-29T12:06:27;28.50;59.40
10042;DHT22;5061;49.068;12.058;2022-07-29T12:09:52;28.50;59.20
10042;DHT22;5061;49.068;12.058;2022-07-29T12:13:14;28.50;59.40
10042;DHT22;5061;49.068;12.058;2022-07-29T12:16:36;28.50;59.10
10042;DHT22;5061;49.068;12.058;2022-07-29T12:19:59;28.60;58.90
10042;DHT22;5061;49.068;12.058;2022-07-29T12:23:20;28.60;58.80
10042;DHT22;5061;49.068;12.058;2022-07-29T12:26:58;28.50;58.60
10042;DHT22;5061;49.068;12.058;2022-07-29T12:30:19;28.60;58.60
10042;DHT22;5061;49.068;12.058;2022-07-29T12:33:39;28.60;58.50
10042;DHT22;5061;49.068;12.058;2022-07-29T12:37:00;28.60;58.40
10042;DHT22;5061;49.068;12.058;2022-07-29T12:40:21;28.50;58.40
10042;DHT22;5061;49.068;12.058;2022-07-29T12:43:53;28.60;58.60
10042;DHT22;5061;49.068;12.058;2022-07-29T12:47:15;28.60;58.60
10042;DHT22;5061;49.068;12.058;2022-07-29T12:50:51;28.60;58.60
10042;DHT22;5061;49.068;12.058;2022-07-29T12:54:14;28.50;58.50
10042;DHT22;5061;49.068;12.058;2022-07-29T12:57:47;28.40;58.60
10042;DHT22;5061;49.068;12.058;2022-07-29T13:01:13;28.30;58.50
10042;DHT22;5061;49.068;12.058;2022-07-29T13:04:35;28.20;58.40
10042;DHT22;5061;49.068;12.058;2022-07-29T13:08:10;28.10;58.50
10042;DHT22;5061;49.068;12.058;2022-07-29T13:11:35;28.10;58.50
10042;DHT22;5061;49.068;12.058;2022-07-29T13:14:56;28.00;58.50
10042;DHT22;5061;49.068;12.058;2022-07-29T13:18:31;28.00;58.50
10042;DHT22;5061;49.068;12.058;2022-07-29T13:21:52;28.10;58.60
10042;DHT22;5061;49.068;12.058;2022-07-29T13:25:13;28.20;58.50
10042;DHT22;5061;49.068;12.058;2022-07-29T13:28:34;28.30;58.50
10042;DHT22;5061;49.068;12.058;2022-07-29T13:31:54;28.50;58.50
10042;DHT22;5061;49.068;12.058;2022-07-29T13:35:15;28.60;58.50
10042;DHT22;5061;49.068;12.058;2022-07-29T13:38:36;28.60;58.50
10042;DHT22;5061;49.068;12.058;2022-07-29T13:41:57;28.70;58.50
10042;DHT22;5061;49.068;12.058;2022-07-29T13:45:18;28.80;58.40
10042;DHT22;5061;49.068;12.058;2022-07-29T13:48:39;28.90;58.20
10042;DHT22;5061;49.068;12.058;2022-07-29T13:52:00;29.00;58.10
10042;DHT22;5061;49.068;12.058;2022-07-29T13:55:20;29.00;58.00
10042;DHT22;5061;49.068;12.058;2022-07-29T13:58:41;29.00;57.90
10042;DHT22;5061;49.068;12.058;2022-07-29T14:02:02;29.10;58.00
10042;DHT22;5061;49.068;12.058;2022-07-29T14:05:23;29.10;57.80
10042;DHT22;5061;49.068;12.058;2022-07-29T14:08:43;29.00;57.70
10042;DHT22;5061;49.068;12.058;2022-07-29T14:12:04;29.00;57.80
10042;DHT22;5061;49.068;12.058;2022-07-29T14:15:25;28.90;57.50
10042;DHT22;5061;49.068;12.058;2022-07-29T14:18:45;28.90;57.50
10042;DHT22;5061;49.068;12.058;2022-07-29T14:22:07;28.90;57.50
10042;DHT22;5061;49.068;12.058;2022-07-29T14:25:28;28.90;57.20
10042;DHT22;5061;49.068;12.058;2022-07-29T14:28:49;28.90;57.20
10042;DHT22;5061;49.068;12.058;2022-07-29T14:32:10;28.90;57.00
10042;DHT22;5061;49.068;12.058;2022-07-29T14:35:31;28.80;56.90
10042;DHT22;5061;49.068;12.058;2022-07-29T14:38:52;28.80;56.50
10042;DHT22;5061;49.068;12.058;2022-07-29T14:42:12;28.80;56.70
10042;DHT22;5061;49.068;12.058;2022-07-29T14:45:33;28.70;56.60
10042;DHT22;5061;49.068;12.058;2022-07-29T14:48:54;28.70;56.80
10042;DHT22;5061;49.068;12.058;2022-07-29T14:52:15;28.80;57.10
10042;DHT22;5061;49.068;12.058;2022-07-29T14:55:35;28.80;57.30
10042;DHT22;5061;49.068;12.058;2022-07-29T14:58:56;28.80;57.50
10042;DHT22;5061;49.068;12.058;2022-07-29T15:02:17;28.70;57.60
10042;DHT22;5061;49.068;12.058;2022-07-29T15:05:38;28.60;57.80
10042;DHT22;5061;49.068;12.058;2022-07-29T15:08:59;28.40;58.20
10042;DHT22;5061;49.068;12.058;2022-07-29T15:12:19;28.20;58.40
10042;DHT22;5061;49.068;12.058;2022-07-29T15:15:40;28.10;58.50
10042;DHT22;5061;49.068;12.058;2022-07-29T15:19:01;28.00;58.60
10042;DHT22;5061;49.068;12.058;2022-07-29T15:22:22;27.90;58.60
10042;DHT22;5061;49.068;12.058;2022-07-29T15:25:42;27.80;58.70
10042;DHT22;5061;49.068;12.058;2022-07-29T15:29:03;27.70;58.80
10042;DHT22;5061;49.068;12.058;2022-07-29T15:32:24;27.60;59.20
10042;DHT22;5061;49.068;12.058;2022-07-29T15:35:44;27.50;58.50
10042;DHT22;5061;49.068;12.058;2022-07-29T15:39:05;27.40;58.60
10042;DHT22;5061;49.068;12.058;2022-07-29T15:42:25;27.20;58.50
10042;DHT22;5061;49.068;12.058;2022-07-29T15:45:46;27.10;58.40
10042;DHT22;5061;49.068;12.058;2022-07-29T15:49:25;27.00;58.30
10042;DHT22;5061;49.068;12.058;2022-07-29T15:52:51;26.80;58.20
10042;DHT22;5061;49.068;12.058;2022-07-29T15:56:11;26.60;58.20
10042;DHT22;5061;49.068;12.058;2022-07-29T15:59:32;26.50;58.30
10042;DHT22;5061;49.068;12.058;2022-07-29T16:02:53;26.40;58.20
10042;DHT22;5061;49.068;12.058;2022-07-29T16:06:13;26.30;58.20
10042;DHT22;5061;49.068;12.058;2022-07-29T16:09:34;26.20;58.10
10042;DHT22;5061;49.068;12.058;2022-07-29T16:12:55;26.10;58.30
10042;DHT22;5061;49.068;12.058;2022-07-29T16:16:15;26.00;58.30
10042;DHT22;5061;49.068;12.058;2022-07-29T16:19:37;25.90;58.30
10042;DHT22;5061;49.068;12.058;2022-07-29T16:22:58;25.90;58.50
10042;DHT22;5061;49.068;12.058;2022-07-29T16:26:19;25.80;58.80
10042;DHT22;5061;49.068;12.058;2022-07-29T16:29:39;25.70;59.00
10042;DHT22;5061;49.068;12.058;2022-07-29T16:33:00;25.60;59.20
10042;DHT22;5061;49.068;12.058;2022-07-29T16:36:21;25.50;58.90
10042;DHT22;5061;49.068;12.058;2022-07-29T16:39:42;25.40;58.70
10042;DHT22;5061;49.068;12.058;2022-07-29T16:43:03;25.30;58.50
10042;DHT22;5061;49.068;12.058;2022-07-29T16:46:24;25.20;58.50
10042;DHT22;5061;49.068;12.058;2022-07-29T16:49:44;25.20;58.60
10042;DHT22;5061;49.068;12.058;2022-07-29T16:53:05;25.10;58.50
10042;DHT22;5061;49.068;12.058;2022-07-29T16:56:26;25.00;58.60
10042;DHT22;5061;49.068;12.058;2022-07-29T16:59:46;24.90;58.60
10042;DHT22;5061;49.068;12.058;2022-07-29T17:03:09;24.80;58.60
10042;DHT22;5061;49.068;12.058;2022-07-29T17:06:29;24.80;58.80
10042;DHT22;5061;49.068;12.058;2022-07-29T17:09:51;24.70;59.60
10042;DHT22;5061;49.068;12.058;2022-07-29T17:13:12;24.60;60.30
10042;DHT22;5061;49.068;12.058;2022-07-29T17:16:33;24.50;60.90
10042;DHT22;5061;49.068;12.058;2022-07-29T17:19:54;24.40;61.20
10042;DHT22;5061;49.068;12.058;2022-07-29T17:23:14;24.30;61.30
10042;DHT22;5061;49.068;12.058;2022-07-29T17:26:35;24.20;61.40
10042;DHT22;5061;49.068;12.058;2022-07-29T17:29:56;24.20;61.90
10042;DHT22;5061;49.068;12.058;2022-07-29T17:33:16;24.10;61.90
10042;DHT22;5061;49.068;12.058;2022-07-29T17:36:37;24.10;62.20
10042;DHT22;5061;49.068;12.058;2022-07-29T17:39:58;24.00;62.30
10042;DHT22;5061;49.068;12.058;2022-07-29T17:43:18;24.00;62.40
10042;DHT22;5061;49.068;12.058;2022-07-29T17:46:39;23.90;62.90
10042;DHT22;5061;49.068;12.058;2022-07-29T17:50:00;23.80;63.00
10042;DHT22;5061;49.068;12.058;2022-07-29T17:53:20;23.70;63.00
10042;DHT22;5061;49.068;12.058;2022-07-29T17:56:41;23.60;63.40
10042;DHT22;5061;49.068;12.058;2022-07-29T18:00:03;23.60;63.80
10042;DHT22;5061;49.068;12.058;2022-07-29T18:03:24;23.50;64.10
10042;DHT22;5061;49.068;12.058;2022-07-29T18:06:45;23.40;64.10
10042;DHT22;5061;49.068;12.058;2022-07-29T18:10:06;23.40;64.30
10042;DHT22;5061;49.068;12.058;2022-07-29T18:13:26;23.40;64.40
10042;DHT22;5061;49.068;12.058;2022-07-29T18:16:47;23.30;64.60
10042;DHT22;5061;49.068;12.058;2022-07-29T18:20:08;23.20;64.80
10042;DHT22;5061;49.068;12.058;2022-07-29T18:23:29;23.20;65.20
10042;DHT22;5061;49.068;12.058;2022-07-29T18:26:50;23.10;66.00
10042;DHT22;5061;49.068;12.058;2022-07-29T18:30:11;22.90;66.90
10042;DHT22;5061;49.068;12.058;2022-07-29T18:33:32;22.80;67.60
10042;DHT22;5061;49.068;12.058;2022-07-29T18:36:52;22.70;68.20
10042;DHT22;5061;49.068;12.058;2022-07-29T18:40:13;22.50;68.70
10042;DHT22;5061;49.068;12.058;2022-07-29T18:43:34;22.50;69.50
10042;DHT22;5061;49.068;12.058;2022-07-29T18:46:55;22.40;70.40
10042;DHT22;5061;49.068;12.058;2022-07-29T18:50:16;22.30;70.90
10042;DHT22;5061;49.068;12.058;2022-07-29T18:53:38;22.30;71.00
10042;DHT22;5061;49.068;12.058;2022-07-29T18:56:59;22.20;70.90
10042;DHT22;5061;49.068;12.058;2022-07-29T19:00:20;22.10;71.10
10042;DHT22;5061;49.068;12.058;2022-07-29T19:03:40;22.00;71.60
10042;DHT22;5061;49.068;12.058;2022-07-29T19:07:01;22.00;71.70
10042;DHT22;5061;49.068;12.058;2022-07-29T19:10:22;21.90;71.50
10042;DHT22;5061;49.068;12.058;2022-07-29T19:13:43;21.90;71.60
10042;DHT22;5061;49.068;12.058;2022-07-29T19:17:03;21.90;71.50
10042;DHT22;5061;49.068;12.058;2022-07-29T19:20:24;21.90;71.60
10042;DHT22;5061;49.068;12.058;2022-07-29T19:23:45;21.90;71.80
10042;DHT22;5061;49.068;12.058;2022-07-29T19:27:06;21.90;71.90
10042;DHT22;5061;49.068;12.058;2022-07-29T19:30:27;21.80;71.90
10042;DHT22;5061;49.068;12.058;2022-07-29T19:33:47;21.90;72.30
10042;DHT22;5061;49.068;12.058;2022-07-29T19:37:08;21.80;72.20
10042;DHT22;5061;49.068;12.058;2022-07-29T19:40:29;21.80;72.20
10042;DHT22;5061;49.068;12.058;2022-07-29T19:43:49;21.80;72.30
10042;DHT22;5061;49.068;12.058;2022-07-29T19:47:10;21.80;72.40
10042;DHT22;5061;49.068;12.058;2022-07-29T19:50:31;21.80;72.50
10042;DHT22;5061;49.068;12.058;2022-07-29T19:53:52;21.80;72.70
10042;DHT22;5061;49.068;12.058;2022-07-29T19:57:12;21.80;72.70
10042;DHT22;5061;49.068;12.058;2022-07-29T20:00:33;21.80;72.90
10042;DHT22;5061;49.068;12.058;2022-07-29T20:03:54;21.70;72.90
10042;DHT22;5061;49.068;12.058;2022-07-29T20:07:15;21.70;73.00
10042;DHT22;5061;49.068;12.058;2022-07-29T20:10:35;21.70;73.30
10042;DHT22;5061;49.068;12.058;2022-07-29T20:13:56;21.60;73.90
10042;DHT22;5061;49.068;12.058;2022-07-29T20:17:17;21.60;73.50
10042;DHT22;5061;49.068;12.058;2022-07-29T20:20:45;21.50;73.70
10042;DHT22;5061;49.068;12.058;2022-07-29T20:24:07;21.40;73.80
10042;DHT22;5061;49.068;12.058;2022-07-29T20:27:28;21.30;74.30
10042;DHT22;5061;49.068;12.058;2022-07-29T20:30:48;21.30;74.70
10042;DHT22;5061;49.068;12.058;2022-07-29T20:34:09;21.20;75.00
10042;DHT22;5061;49.068;12.058;2022-07-29T20:37:29;21.10;75.40
10042;DHT22;5061;49.068;12.058;2022-07-29T20:40:50;21.00;75.90
10042;DHT22;5061;49.068;12.058;2022-07-29T20:44:12;20.90;76.30
10042;DHT22;5061;49.068;12.058;2022-07-29T20:47:34;20.80;76.50
10042;DHT22;5061;49.068;12.058;2022-07-29T20:50:55;20.70;77.10
10042;DHT22;5061;49.068;12.058;2022-07-29T20:54:15;20.60;77.30
10042;DHT22;5061;49.068;12.058;2022-07-29T20:57:36;20.60;78.50
10042;DHT22;5061;49.068;12.058;2022-07-29T21:00:57;20.50;78.10
10042;DHT22;5061;49.068;12.058;2022-07-29T21:04:17;20.50;78.70
10042;DHT22;5061;49.068;12.058;2022-07-29T21:07:38;20.40;78.90
10042;DHT22;5061;49.068;12.058;2022-07-29T21:10:58;20.40;79.10
10042;DHT22;5061;49.068;12.058;2022-07-29T21:14:19;20.30;79.40
10042;DHT22;5061;49.068;12.058;2022-07-29T21:18:09;20.30;79.90
10042;DHT22;5061;49.068;12.058;2022-07-29T21:21:46;20.20;80.20
10042;DHT22;5061;49.068;12.058;2022-07-29T21:25:07;20.10;80.70
10042;DHT22;5061;49.068;12.058;2022-07-29T21:28:29;20.10;81.20
10042;DHT22;5061;49.068;12.058;2022-07-29T21:31:55;20.00;81.70
10042;DHT22;5061;49.068;12.058;2022-07-29T21:35:16;19.90;82.20
10042;DHT22;5061;49.068;12.058;2022-07-29T21:38:37;19.90;82.80
10042;DHT22;5061;49.068;12.058;2022-07-29T21:41:58;19.80;83.10
10042;DHT22;5061;49.068;12.058;2022-07-29T21:45:18;19.70;83.40
10042;DHT22;5061;49.068;12.058;2022-07-29T21:48:39;19.70;83.70
10042;DHT22;5061;49.068;12.058;2022-07-29T21:52:00;19.60;84.10
10042;DHT22;5061;49.068;12.058;2022-07-29T21:55:20;19.50;84.50